Motte Rimrock Reserve, California Weather observations

Data are for 10 minute period ending at time listed.
 Day   Time   Solar   Ave.   Ave.  Ave.  Vector  Max.   Baro.   Total    
  of    of     Rad.   Air    Rel.  Wind   Wind   Wind  Press.  Precip.   
Year   Day            Temp.  Hum.  Speed  Dir.   Gust                    
2014   (PST)  Kw/m2    F      %     mph   deg.    mph    mb.     in.     
-------------------------------------------------------------------------
 210    5:10   0.00   72.9    19    0.3   223     1.2   950.4    0.00 
 210    5:20   0.01   73.7    19    0.4   269     1.5   950.4    0.00 
 210    5:30   0.03   74.3    19    1.9   348     2.3   950.4    0.00 
 210    5:40   0.05   74.5    20    1.7   324     2.3   950.5    0.00 
 210    5:50   0.07   75.2    19    1.1   269     1.8   950.5    0.00 
 210    6:00   0.10   75.3    19    1.8   248     2.1   950.6    0.00 
 210    6:10   0.13   75.6    18    1.3   223     2.0   950.6    0.00 
 210    6:20   0.16   76.7    17    1.1   238     1.6   950.7    0.00 
 210    6:30   0.19   77.9    17    0.8   224     1.9   950.8    0.00 
 210    6:40   0.23   78.8    17    1.0   171     2.4   950.9    0.00 
 210    6:50   0.26   80.3    16    1.1   132     2.4   950.8    0.00 
 210    7:00   0.29   79.7    17    2.3    56     3.4   950.8    0.00 
 210    7:10   0.33   78.8    19    2.7    70     4.2   950.9    0.00 
 210    7:20   0.36   79.3    20    2.4    79     3.7   950.8    0.00 
 210    7:30   0.40   79.6    20    2.9    66     4.5   950.7    0.00 
 210    7:40   0.43   80.6    19    2.2    98     4.1   950.7    0.00 
 210    7:50   0.47   82.1    19    2.0    99     3.6   950.7    0.00 
 210    8:00   0.49   82.2    20    2.0   102     3.7   950.6    0.00 
 210    8:10   0.51   83.2    20    1.9   145     4.0   950.6    0.00 
 210    8:20   0.53   83.4    20    3.9   151     7.6   950.6    0.00 
 210    8:30   0.57   82.8    23    4.6   174     6.8   950.6    0.00 
 210    8:40   0.63   83.1    24    4.2   164     7.4   950.5    0.00 
 210    8:50   0.66   84.5    23    2.6   179     6.0   950.4    0.00 
 210    9:00   0.67   85.4    23    4.4   178     9.2   950.3    0.00 
 210    9:10   0.68   85.0    23    4.4   204     8.4   950.3    0.00 
 210    9:20   0.69   86.4    22    4.2   186     7.9   950.2    0.00 
 210    9:30   0.77   86.7    21    3.5   254     7.7   950.2    0.00 
 210    9:40   0.77   87.3    20    2.2   222     5.5   950.1    0.00 
 210    9:50   0.81   88.9    20    2.8   273     6.9   950.1    0.00 
 210   10:00   0.81   89.2    20    2.4   279     7.6   950.0    0.00 
 210   10:10   0.82   89.7    19    3.9   264     8.0   950.0    0.00 
 210   10:20   0.85   90.1    19    3.6   286     8.4   950.0    0.00 
 210   10:30   0.89   90.6    19    5.8   292    11.4   949.9    0.00 
 210   10:40   0.90   90.8    18    5.4   314    10.4   949.9    0.00 
 210   10:50   0.92   91.6    17    7.2   325    14.2   949.8    0.00 
 210   11:00   0.92   92.2    16    8.4   298    12.9   949.7    0.00 
 210   11:10   0.84   91.3    17    7.7   308    12.6   949.6    0.00 
 210   11:20   0.87   92.0    16   10.0   315    14.5   949.6    0.00 
 210   11:30   0.84   92.6    16    9.2   299    13.2   949.5    0.00 
 210   11:40   0.83   92.2    17    9.8   305    14.6   949.4    0.00 
 210   11:50   0.68   91.8    17   10.1   300    14.2   949.4    0.00 
 210   12:00   0.66   91.6    17   10.5   305    15.1   949.3    0.00 
 210   12:10   0.76   92.1    17   10.6   298    15.6   949.2    0.00 
 210   12:20   0.81   91.9    17   10.5   302    13.9   949.1    0.00 
 210   12:30   0.74   92.2    17   10.4   298    14.9   949.0    0.00 
 210   12:40   0.66   92.6    17   11.4   295    15.6   948.8    0.00 
 210   12:50   0.60   92.0    17   11.7   306    15.3   948.8    0.00 
 210   13:00   0.60   92.4    18   10.3   311    13.8   948.7    0.00 
 210   13:10   0.65   92.8    18   10.7   297    15.1   948.6    0.00 
 210   13:20   0.73   93.5    17   11.6   291    16.4   948.4    0.00 
 210   13:30   0.78   93.9    17   12.7   302    16.8   948.3    0.00 
 210   13:40   0.64   93.5    18   13.0   308    17.5   948.3    0.00 
 210   13:50   0.64   92.8    18   11.2   300    16.3   948.2    0.00 
 210   14:00   0.78   93.3    18   12.2   309    15.5   948.1    0.00 
 210   14:10   0.73   93.1    19   11.8   300    16.1   948.1    0.00 
 210   14:20   0.68   93.3    19   10.8   308    16.8   948.1    0.00 
 210   14:30   0.66   93.3    19   11.4   310    18.2   947.9    0.00 
 210   14:40   0.68   92.7    20   12.1   311    18.0   947.8    0.00 
 210   14:50   0.64   93.0    20   12.4   318    16.5   947.7    0.00 
 210   15:00   0.53   92.6    21   12.4   317    16.4   947.6    0.00 
 210   15:10   0.62   93.0    20   12.8   320    17.8   947.5    0.00 
 210   15:20   0.57   93.0    20   14.2   321    19.5   947.4    0.00 
 210   15:30   0.43   92.1    20   13.8   316    18.9   947.4    0.00 
 210   15:40   0.46   92.1    20   14.4   309    20.8   947.3    0.00 
 210   15:50   0.47   92.0    21   14.6   312    19.6   947.1    0.00 
 210   16:00   0.43   91.9    21   14.9   298    19.0   947.1    0.00 
 210   16:10   0.40   91.3    21   17.9   299    22.5   947.0    0.00 
 210   16:20   0.33   91.0    20   17.2   305    22.3   946.9    0.00 
 210   16:30   0.33   90.9    19   18.5   303    24.3   946.9    0.00 
 210   16:40   0.25   89.7    20   19.5   298    24.3   946.8    0.00 
 210   16:50   0.23   89.6    20   19.3   301    24.5   946.8    0.00 
 210   17:00   0.10   88.8    21   17.7   303    24.0   946.7    0.00 
 210   17:10   0.14   88.6    22   18.1   304    23.0   946.7    0.00 
 210   17:20   0.11   88.3    21   17.7   304    22.9   946.6    0.00 
 210   17:30   0.11   88.1    21   17.6   307    22.4   946.7    0.00 
 210   17:40   0.10   87.2    23   17.5   307    23.8   946.8    0.00 
 210   17:50   0.11   86.5    24   16.8   307    22.6   947.0    0.00 
 210   18:00   0.09   85.5    27   17.0   307    23.2   947.1    0.00 
 210   18:10   0.06   84.5    27   17.9   307    22.9   947.1    0.00 
 210   18:20   0.04   83.6    27   18.0   308    22.3   947.3    0.00 
 210   18:30   0.01   82.9    28   14.2   305    19.5   947.5    0.00 
 210   18:40   0.01   82.3    28   10.5   289    15.5   947.8    0.00 
 210   18:50   0.01   81.6    30    7.6   289    11.0   948.0    0.00 
 210   19:00   0.01   81.1    31   11.2   295    15.3   948.0    0.00 
 210   19:10   0.01   80.5    32   12.1   300    14.8   948.1    0.00 
 210   19:20   0.00   80.0    32   10.8   306    13.2   948.3    0.00 
 210   19:30   0.00   79.4    33   10.4   311    12.5   948.4    0.00 
 210   19:40   0.00   79.1    34    9.7   318    12.2   948.6    0.00 
 210   19:50   0.00   78.5    34    9.5   323    13.2   948.7    0.00 
 210   20:00   0.00   78.2    35   11.8   321    14.0   948.7    0.00 
 210   20:10   0.00   77.7    36   13.1   321    15.1   948.8    0.00 
 210   20:20   0.00   76.9    39   13.5   324    15.9   948.8    0.00 
 210   20:30   0.00   76.1    40   14.1   326    16.1   948.8    0.00 
 210   20:40   0.00   75.8    40   13.7   325    16.0   948.8    0.00 
 210   20:50   0.00   75.5    40   10.2   330    14.2   949.0    0.00 
 210   21:00   0.00   75.3    40    3.3   226     6.7   949.3    0.00 
 210   21:10   0.00   75.1    40    3.0   281     6.1   949.4    0.00 
 210   21:20   0.00   74.5    42    3.6   272     5.3   949.4    0.00 
 210   21:30   0.00   74.0    42    3.9   260     5.5   949.5    0.00 
 210   21:40   0.00   74.1    42    4.6   277     6.1   949.4    0.00 
 210   21:50   0.00   74.0    42    4.9   303     6.7   949.3    0.00 
 210   22:00   0.00   74.5    40    5.9   309     7.1   949.2    0.00 
 210   22:10   0.00   75.1    37    6.2   303     6.9   949.1    0.00 
 210   22:20   0.00   74.9    37    4.7   291     6.4   949.1    0.00 
 210   22:30   0.00   73.8    41    4.6   272     6.5   949.1    0.00 
 210   22:40   0.00   74.2    42    3.3   264     4.3   949.0    0.00 
 210   22:50   0.00   74.2    43    4.0   262     5.2   948.9    0.00 
 210   23:00   0.00   73.9    44    3.6   250     4.7   948.8    0.00 
 210   23:10   0.00   74.0    44    3.9   248     4.8   948.7    0.00 
 210   23:20   0.00   74.0    44    2.7   244     3.8   948.6    0.00 
 210   23:30   0.00   74.5    43    1.8   243     3.1   948.5    0.00 
 210   23:40   0.00   74.6    43    2.7   213     3.6   948.5    0.00 
 210   23:50   0.00   74.6    44    3.1   186     3.9   948.5    0.00 
 211    0:00   0.00   74.2    44    3.2   155     4.1   948.4    0.00 
 211    0:10   0.00   73.5    45    3.3   149     4.1   948.4    0.00 
 211    0:20   0.00   73.4    45    3.1   164     4.1   948.3    0.00 
 211    0:30   0.00   73.4    46    1.6   158     2.3   948.3    0.00 
 211    0:40   0.00   73.1    46    1.6   137     2.3   948.4    0.00 
 211    0:50   0.00   73.3    45    2.4    26     3.9   948.3    0.00 
 211    1:00   0.00   73.2    45    2.6    40     3.3   948.2    0.00 
 211    1:10   0.00   73.2    44    3.4    18     4.5   948.1    0.00 
 211    1:20   0.00   73.3    42    4.0    16     4.8   948.1    0.00 
 211    1:30   0.00   73.0    43    4.5   360     5.4   948.0    0.00 
 211    1:40   0.00   72.6    43    4.2   348     5.2   948.0    0.00 
 211    1:50   0.00   72.0    44    3.4   331     4.2   947.9    0.00 
 211    2:00   0.00   72.7    42    2.1   352     3.1   947.9    0.00 
 211    2:10   0.00   74.6    40    1.8    15     2.3   947.9    0.00 
 211    2:20   0.00   74.9    40    0.8     2     1.5   947.9    0.00 
 211    2:30   0.00   73.5    42    2.4   284     4.2   947.8    0.00 
 211    2:40   0.00   72.6    42    2.3   294     3.8   947.8    0.00 
 211    2:50   0.00   73.1    41    1.6   296     2.6   947.7    0.00 
 211    3:00   0.00   74.0    40    1.1    59     2.0   947.7    0.00 
 211    3:10   0.00   74.2    40    1.4    73     2.0   947.7    0.00 
 211    3:20   0.00   73.8    41    1.0    60     2.9   947.7    0.00 
 211    3:30   0.00   72.9    42    3.1    50     3.5   947.7    0.00 
 211    3:40   0.00   72.3    43    3.3    40     3.8   947.6    0.00 
 211    3:50   0.00   71.8    44    3.8    41     4.2   947.6    0.00 
 211    4:00   0.00   71.7    44    3.7    29     4.3   947.6    0.00 
 211    4:10   0.00   72.3    44    2.4    17     2.9   947.7    0.00 
 211    4:20   0.00   72.7    43    2.7    50     3.4   947.8    0.00 
 211    4:30   0.00   70.2    46    2.9   187     4.2   947.8    0.00 
 211    4:40   0.00   68.6    50    3.5   209     4.3   947.9    0.00 
 211    4:50   0.00   67.8    51    3.0   227     3.7   948.0    0.00 
 211    5:00   0.00   68.2    54    3.3   203     4.1   948.1    0.00 

Return to Motte Rimrock Reserve graphs page.


Western Regional Climate Center,wrcc@dri.edu